createdAt,value
2017-05-28T00:00:30.482Z,1013.02
2017-05-28T00:01:41.508Z,1013.02
2017-05-28T00:02:52.569Z,1013.03
2017-05-28T00:04:03.585Z,1013.07
2017-05-28T00:05:14.806Z,1013.08
2017-05-28T00:06:25.835Z,1013.12
2017-05-28T00:07:36.875Z,1013.09
2017-05-28T00:08:47.949Z,1013.04
2017-05-28T00:09:59.166Z,1013
2017-05-28T00:11:10.394Z,1012.99
2017-05-28T00:12:21.412Z,1013.02
2017-05-28T00:13:32.539Z,1013.03
2017-05-28T00:14:43.606Z,1013.08
2017-05-28T00:15:54.818Z,1013.11
2017-05-28T00:17:05.835Z,1013.12
2017-05-28T00:18:16.869Z,1013.14
2017-05-28T00:19:27.877Z,1013.18
2017-05-28T00:20:38.898Z,1013.2
2017-05-28T00:21:49.911Z,1013.18
2017-05-28T00:23:00.939Z,1013.17
2017-05-28T00:24:11.973Z,1013.21
2017-05-28T00:25:23.035Z,1013.19
2017-05-28T00:26:34.051Z,1013.19
2017-05-28T00:27:45.270Z,1013.25
2017-05-28T00:28:56.284Z,1013.25
2017-05-28T00:30:07.297Z,1013.27
2017-05-28T00:31:18.364Z,1013.28
2017-05-28T00:32:29.377Z,1013.28
2017-05-28T00:33:40.398Z,1013.34
2017-05-28T00:34:51.421Z,1013.39
2017-05-28T00:36:02.448Z,1013.48
2017-05-28T00:37:13.508Z,1013.43
2017-05-28T00:38:24.529Z,1013.4
2017-05-28T00:39:35.550Z,1013.4
2017-05-28T00:40:46.568Z,1013.42
2017-05-28T00:41:57.590Z,1013.43
2017-05-28T00:43:08.860Z,1013.44
2017-05-28T00:44:19.874Z,1013.43
2017-05-28T00:45:30.910Z,1013.41
2017-05-28T00:46:41.925Z,1013.39
2017-05-28T00:47:53.143Z,1013.35
2017-05-28T00:49:04.202Z,1013.3
2017-05-28T00:50:15.212Z,1013.33
2017-05-28T00:51:26.235Z,1013.32
2017-05-28T00:52:37.242Z,1013.33
2017-05-28T00:53:48.253Z,1013.31
2017-05-28T00:54:59.315Z,1013.25
2017-05-28T00:56:10.533Z,1013.21
2017-05-28T00:57:21.750Z,1013.15
2017-05-28T00:58:32.975Z,1013.21
2017-05-28T00:59:43.995Z,1013.19
2017-05-28T01:00:55.026Z,1013.18
2017-05-28T01:02:06.033Z,1013.19
2017-05-28T01:03:17.241Z,1013.18
2017-05-28T01:04:28.260Z,1013.17
2017-05-28T01:05:39.315Z,1013.2
2017-05-28T01:06:50.326Z,1013.23
2017-05-28T01:08:01.331Z,1013.2
2017-05-28T01:09:12.351Z,1013.21
2017-05-28T01:10:23.369Z,1013.17
2017-05-28T01:11:34.439Z,1013.12
2017-05-28T01:12:45.850Z,1013.1
2017-05-28T01:13:56.874Z,1013.08
2017-05-28T01:15:07.960Z,1013.07
2017-05-28T01:16:18.970Z,1013.07
2017-05-28T01:17:30.041Z,1013.04
2017-05-28T01:18:41.069Z,1013.02
2017-05-28T01:19:52.099Z,1012.97
2017-05-28T01:21:03.323Z,1012.96
2017-05-28T01:22:14.334Z,1012.94
2017-05-28T01:23:25.396Z,1012.98
2017-05-28T01:24:36.410Z,1012.95
2017-05-28T01:25:47.420Z,1012.97
2017-05-28T01:26:58.634Z,1012.97
2017-05-28T01:28:09.661Z,1012.95
2017-05-28T01:29:20.726Z,1012.92
2017-05-28T01:30:31.733Z,1012.93
2017-05-28T01:31:42.743Z,1012.96
2017-05-28T01:32:53.759Z,1012.91
2017-05-28T01:34:04.787Z,1012.92
2017-05-28T01:35:15.867Z,1012.93
2017-05-28T01:36:27.078Z,1012.95
2017-05-28T01:37:38.153Z,1012.92
2017-05-28T01:38:49.366Z,1012.89
2017-05-28T01:40:00.379Z,1012.91
2017-05-28T01:41:11.434Z,1012.88
2017-05-28T01:42:22.668Z,1012.88
2017-05-28T01:43:33.696Z,1012.88
2017-05-28T01:44:44.721Z,1012.88
2017-05-28T01:45:55.735Z,1012.84
2017-05-28T01:47:06.788Z,1012.84
2017-05-28T01:48:17.803Z,1012.84
2017-05-28T01:49:28.833Z,1012.84
2017-05-28T01:50:39.846Z,1012.87
2017-05-28T01:51:50.858Z,1012.91
2017-05-28T01:53:01.917Z,1012.87
2017-05-28T01:54:12.935Z,1012.9
2017-05-28T01:55:23.957Z,1012.92
2017-05-28T01:56:34.959Z,1012.86
2017-05-28T01:57:45.969Z,1012.87
2017-05-28T01:58:57.030Z,1012.88
2017-05-28T02:00:08.044Z,1012.86
2017-05-28T02:01:19.055Z,1012.87
2017-05-28T02:02:30.068Z,1012.89
2017-05-28T02:03:41.072Z,1012.91
2017-05-28T02:04:52.145Z,1012.92
2017-05-28T02:06:03.158Z,1012.89
2017-05-28T02:07:14.372Z,1012.87
2017-05-28T02:08:25.389Z,1012.87
2017-05-28T02:09:36.619Z,1012.91
2017-05-28T02:10:47.646Z,1012.86
2017-05-28T02:11:59.068Z,1012.82
2017-05-28T02:13:10.094Z,1012.83
2017-05-28T02:14:21.313Z,1012.83
2017-05-28T02:15:32.378Z,1012.84
2017-05-28T02:16:43.410Z,1012.85
2017-05-28T02:17:54.423Z,1012.86
2017-05-28T02:19:05.430Z,1012.86
2017-05-28T02:20:16.448Z,1012.87
2017-05-28T02:21:27.917Z,1012.86
2017-05-28T02:22:39.337Z,1012.86
2017-05-28T02:23:50.554Z,1012.88
2017-05-28T02:25:01.576Z,1012.86
2017-05-28T02:26:12.589Z,1012.88
2017-05-28T02:27:23.850Z,1012.92
2017-05-28T02:28:35.072Z,1012.91
2017-05-28T02:29:46.292Z,1012.9
2017-05-28T02:30:57.298Z,1012.9
2017-05-28T02:32:08.329Z,1012.9
2017-05-28T02:33:19.406Z,1012.91
2017-05-28T02:34:30.422Z,1012.94
2017-05-28T02:35:41.430Z,1012.95
2017-05-28T02:36:52.447Z,1012.94
2017-05-28T02:38:03.460Z,1012.91
2017-05-28T02:39:14.522Z,1012.91
2017-05-28T02:40:25.742Z,1012.97
2017-05-28T02:41:36.754Z,1012.94
2017-05-28T02:42:47.973Z,1012.9
2017-05-28T02:43:59.205Z,1012.89
2017-05-28T02:45:10.266Z,1012.91
2017-05-28T02:46:21.283Z,1012.89
2017-05-28T02:47:32.295Z,1012.96
2017-05-28T02:48:43.306Z,1012.97
2017-05-28T02:49:54.327Z,1013
2017-05-28T02:51:05.397Z,1012.99
2017-05-28T02:52:16.407Z,1013.04
2017-05-28T02:53:27.405Z,1012.99
2017-05-28T02:54:38.419Z,1012.97
2017-05-28T02:55:49.640Z,1012.99
2017-05-28T02:57:00.704Z,1013
2017-05-28T02:58:11.719Z,1013
2017-05-28T02:59:22.726Z,1013.02
2017-05-28T03:00:33.743Z,1012.99
2017-05-28T03:01:44.758Z,1013
2017-05-28T03:02:55.824Z,1013
2017-05-28T03:04:06.836Z,1012.99
2017-05-28T03:05:17.847Z,1013.02
2017-05-28T03:06:29.068Z,1013.04
2017-05-28T03:07:40.084Z,1013.05
2017-05-28T03:08:51.146Z,1013.07
2017-05-28T03:10:02.168Z,1013.1
2017-05-28T03:11:13.186Z,1013.14
2017-05-28T03:12:24.261Z,1013.1
2017-05-28T03:13:35.270Z,1013.11
2017-05-28T03:14:46.334Z,1013.12
2017-05-28T03:15:57.349Z,1013.17
2017-05-28T03:17:08.376Z,1013.24
2017-05-28T03:18:19.384Z,1013.23
2017-05-28T03:19:30.398Z,1013.27
2017-05-28T03:20:41.435Z,1013.26
2017-05-28T03:21:52.445Z,1013.34
2017-05-28T03:23:03.464Z,1013.35
2017-05-28T03:24:14.485Z,1013.34
2017-05-28T03:25:25.549Z,1013.34
2017-05-28T03:26:36.541Z,1013.35
2017-05-28T03:27:47.554Z,1013.35
2017-05-28T03:28:58.578Z,1013.26
2017-05-28T03:30:09.604Z,1013.25
2017-05-28T03:31:20.870Z,1013.26
2017-05-28T03:32:31.889Z,1013.23
2017-05-28T03:33:43.102Z,1013.22
2017-05-28T03:34:54.328Z,1013.22
2017-05-28T03:36:05.395Z,1013.24
2017-05-28T03:37:16.446Z,1013.27
2017-05-28T03:38:27.464Z,1013.35
2017-05-28T03:39:38.483Z,1013.33
2017-05-28T03:40:49.510Z,1013.34
2017-05-28T03:42:00.520Z,1013.33
2017-05-28T03:43:11.587Z,1013.33
2017-05-28T03:44:22.651Z,1013.4
2017-05-28T03:45:33.661Z,1013.42
2017-05-28T03:46:44.705Z,1013.44
2017-05-28T03:47:55.920Z,1013.48
2017-05-28T03:49:06.987Z,1013.51
2017-05-28T03:50:18.009Z,1013.54
2017-05-28T03:51:29.026Z,1013.6
2017-05-28T03:52:40.038Z,1013.66
2017-05-28T03:53:51.056Z,1013.7
2017-05-28T03:55:02.135Z,1013.72
2017-05-28T03:56:13.137Z,1013.79
2017-05-28T03:57:24.151Z,1013.89
2017-05-28T03:58:35.173Z,1013.85
2017-05-28T03:59:46.384Z,1013.83
2017-05-28T04:00:57.612Z,1013.88
2017-05-28T04:02:08.637Z,1013.98
2017-05-28T04:03:19.655Z,1014.02
2017-05-28T04:04:31.135Z,1014.08
2017-05-28T04:05:42.204Z,1014.13
2017-05-28T04:06:53.227Z,1014.15
2017-05-28T04:08:04.233Z,1014.22
2017-05-28T04:09:15.457Z,1014.26
2017-05-28T04:10:26.686Z,1014.23
2017-05-28T04:11:38.007Z,1014.22
2017-05-28T04:12:49.014Z,1014.24
2017-05-28T04:14:00.029Z,1014.25
2017-05-28T04:15:11.093Z,1014.33
2017-05-28T04:16:22.097Z,1014.28
2017-05-28T04:17:33.160Z,1014.3
2017-05-28T04:18:44.165Z,1014.31
2017-05-28T04:19:55.392Z,1014.32
2017-05-28T04:21:06.408Z,1014.37
2017-05-28T04:22:17.434Z,1014.34
2017-05-28T04:23:28.707Z,1014.37
2017-05-28T04:24:39.934Z,1014.32
2017-05-28T04:25:50.947Z,1014.3
2017-05-28T04:27:01.959Z,1014.32
2017-05-28T04:28:13.198Z,1014.33
2017-05-28T04:29:24.274Z,1014.31
2017-05-28T04:30:35.288Z,1014.33
2017-05-28T04:31:46.299Z,1014.31
2017-05-28T04:32:57.323Z,1014.29
2017-05-28T04:34:08.542Z,1014.25
2017-05-28T04:35:19.803Z,1014.25
2017-05-28T04:36:30.825Z,1014.26
2017-05-28T04:37:41.842Z,1014.3
2017-05-28T04:38:53.071Z,1014.32
2017-05-28T04:40:04.098Z,1014.4
2017-05-28T04:41:15.168Z,1014.44
2017-05-28T04:42:26.199Z,1014.5
2017-05-28T04:43:37.616Z,1014.44
2017-05-28T04:44:48.854Z,1014.49
2017-05-28T04:45:59.865Z,1014.42
2017-05-28T04:47:10.933Z,1014.39
2017-05-28T04:48:21.954Z,1014.36
2017-05-28T04:49:32.969Z,1014.23
2017-05-28T04:50:43.978Z,1014.2
2017-05-28T04:51:54.993Z,1014.21
2017-05-28T04:53:06.056Z,1014.2
2017-05-28T04:54:17.052Z,1014.17
2017-05-28T04:55:28.071Z,1014.2
2017-05-28T04:56:39.101Z,1014.17
2017-05-28T04:57:50.137Z,1014.09
2017-05-28T04:59:01.201Z,1014.06
2017-05-28T05:00:12.208Z,1014.09
2017-05-28T05:01:23.630Z,1014.07
2017-05-28T05:02:34.649Z,1014.08
2017-05-28T05:03:45.867Z,1014.04
2017-05-28T05:04:56.932Z,1014
2017-05-28T05:06:07.948Z,1014
2017-05-28T05:07:18.957Z,1014.06
2017-05-28T05:08:29.986Z,1014.07
2017-05-28T05:09:40.995Z,1014.08
2017-05-28T05:10:52.222Z,1014.14
2017-05-28T05:12:03.240Z,1014.09
2017-05-28T05:13:14.264Z,1014.04
2017-05-28T05:14:25.265Z,1014.07
2017-05-28T05:15:36.326Z,1014.12
2017-05-28T05:16:47.347Z,1014.09
2017-05-28T05:17:58.363Z,1014.05
2017-05-28T05:19:09.386Z,1014.04
2017-05-28T05:20:20.414Z,1014.08
2017-05-28T05:21:31.539Z,1014.07
2017-05-28T05:22:42.545Z,1014.04
2017-05-28T05:23:53.570Z,1013.95
2017-05-28T05:25:04.598Z,1014.01
2017-05-28T05:26:15.809Z,1014.04
2017-05-28T05:27:26.896Z,1014.07
2017-05-28T05:28:37.914Z,1014.09
2017-05-28T05:29:48.936Z,1014.07
2017-05-28T05:30:59.959Z,1014.04
2017-05-28T05:32:10.975Z,1013.99
2017-05-28T05:33:22.040Z,1014.01
2017-05-28T05:34:33.057Z,1013.99
2017-05-28T05:35:44.066Z,1013.93
2017-05-28T05:36:55.084Z,1013.84
2017-05-28T05:38:06.106Z,1013.83
2017-05-28T05:39:17.159Z,1013.93
2017-05-28T05:40:28.188Z,1013.97
2017-05-28T05:41:39.415Z,1014.05
2017-05-28T05:42:50.427Z,1014.15
2017-05-28T05:44:01.438Z,1014.18
2017-05-28T05:45:12.505Z,1014.15
2017-05-28T05:46:23.720Z,1014.13
2017-05-28T05:47:34.725Z,1014.12
2017-05-28T05:48:45.799Z,1014.11
2017-05-28T05:49:56.819Z,1014.06
2017-05-28T05:51:07.876Z,1014
2017-05-28T05:52:18.897Z,1013.98
2017-05-28T05:53:30.118Z,1014.05
2017-05-28T05:54:41.140Z,1014.12
2017-05-28T05:55:52.362Z,1014.1
2017-05-28T05:57:03.628Z,1014.02
2017-05-28T05:58:14.859Z,1013.94
2017-05-28T05:59:25.880Z,1013.89
2017-05-28T06:00:36.902Z,1013.83
2017-05-28T06:01:48.115Z,1013.85
2017-05-28T06:02:59.210Z,1013.89
2017-05-28T06:04:10.211Z,1014
2017-05-28T06:05:21.214Z,1013.99
2017-05-28T06:06:32.248Z,1013.98
2017-05-28T06:07:43.251Z,1014.02
2017-05-28T06:08:54.318Z,1014.14
2017-05-28T06:10:05.386Z,1014.25
2017-05-28T06:11:16.392Z,1014.29
2017-05-28T06:12:27.402Z,1014.3
2017-05-28T06:13:38.464Z,1014.42
2017-05-28T06:14:49.527Z,1014.59
2017-05-28T06:16:00.557Z,1014.67
2017-05-28T06:17:11.772Z,1014.78
2017-05-28T06:18:23.202Z,1014.87
2017-05-28T06:19:34.221Z,1014.86
2017-05-28T06:20:45.240Z,1014.7
2017-05-28T06:21:56.250Z,1014.65
2017-05-28T06:23:07.276Z,1014.87
2017-05-28T06:24:18.285Z,1015.07
2017-05-28T06:25:29.342Z,1015.04
2017-05-28T06:26:40.564Z,1014.99
2017-05-28T06:27:51.579Z,1015.09
2017-05-28T06:29:02.613Z,1015.1
2017-05-28T06:30:13.625Z,1015.1
2017-05-28T06:31:24.698Z,1015.04
2017-05-28T06:32:35.713Z,1015.11
2017-05-28T06:33:46.724Z,1015.18
2017-05-28T06:34:57.935Z,1015.12
2017-05-28T06:36:08.944Z,1015.13
2017-05-28T06:37:20.218Z,1015.11
2017-05-28T06:38:31.424Z,1015.02
2017-05-28T06:39:42.836Z,1015.04
2017-05-28T06:40:53.850Z,1015.06
2017-05-28T06:42:05.065Z,1015.06
2017-05-28T06:43:16.325Z,1014.96
2017-05-28T06:44:27.361Z,1014.83
2017-05-28T06:45:38.571Z,1014.78
2017-05-28T06:46:49.579Z,1014.73
2017-05-28T06:48:00.589Z,1014.61
2017-05-28T06:49:11.665Z,1014.5
2017-05-28T06:50:22.689Z,1014.4
2017-05-28T06:51:33.709Z,1014.21
2017-05-28T06:52:44.927Z,1014.11
2017-05-28T06:53:56.336Z,1014.01
2017-05-28T06:55:07.414Z,1013.98
2017-05-28T06:56:18.631Z,1014.02
2017-05-28T06:57:29.713Z,1014.05
2017-05-28T06:58:40.920Z,1014.06
2017-05-28T06:59:51.933Z,1014.13
2017-05-28T07:01:02.988Z,1014.09
2017-05-28T07:02:13.994Z,1014.05
2017-05-28T07:03:25.038Z,1014.04
2017-05-28T07:04:36.050Z,1013.98
2017-05-28T07:05:47.053Z,1013.96
2017-05-28T07:06:58.110Z,1013.93
2017-05-28T07:08:09.732Z,1013.94
2017-05-28T07:09:20.754Z,1013.88
2017-05-28T07:10:31.769Z,1013.93
2017-05-28T07:11:42.787Z,1013.91
2017-05-28T07:12:53.856Z,1014.09
2017-05-28T07:14:05.075Z,1014.27
2017-05-28T07:15:16.293Z,1014.52
2017-05-28T07:16:27.503Z,1014.63
2017-05-28T07:17:38.513Z,1014.69
2017-05-28T07:18:49.580Z,1014.94
2017-05-28T07:20:00.588Z,1014.77
2017-05-28T07:21:11.593Z,1014.7
2017-05-28T07:22:22.607Z,1014.71
2017-05-28T07:23:33.614Z,1014.82
2017-05-28T07:24:44.686Z,1014.91
2017-05-28T07:25:55.724Z,1015.06
2017-05-28T07:27:06.740Z,1015.24
2017-05-28T07:28:17.755Z,1015.19
2017-05-28T07:29:28.761Z,1015.22
2017-05-28T07:30:39.774Z,1015.22
2017-05-28T07:31:50.788Z,1015.27
2017-05-28T07:33:01.812Z,1015.42
2017-05-28T07:34:12.820Z,1015.59
2017-05-28T07:35:23.902Z,1015.73
2017-05-28T07:36:34.924Z,1016.21
2017-05-28T07:37:46.140Z,1019.1
2017-05-28T07:38:57.160Z,1016.83
2017-05-28T07:40:08.380Z,1019.93
2017-05-28T07:41:19.443Z,1022.43
2017-05-28T07:42:30.472Z,1019.13
2017-05-28T07:43:41.494Z,1017.46
2017-05-28T07:44:52.508Z,1018.41
2017-05-28T07:46:03.521Z,1020.67
2017-05-28T07:47:14.582Z,1021.99
2017-05-28T07:48:25.601Z,1022.29
2017-05-28T07:49:36.627Z,1022.07
2017-05-28T07:50:47.658Z,1021.92
2017-05-28T07:51:58.873Z,1022.08
2017-05-28T07:53:10.160Z,1022.12
2017-05-28T07:54:21.183Z,1021.45
2017-05-28T07:55:32.411Z,1021.24
2017-05-28T07:56:43.448Z,1021.18
2017-05-28T07:57:54.479Z,1021.12
2017-05-28T07:59:05.568Z,1020.93
2017-05-28T08:00:16.594Z,1021.12
2017-05-28T08:01:27.625Z,1021.83
2017-05-28T08:02:38.652Z,1021.06
2017-05-28T08:03:49.894Z,1020.94
2017-05-28T08:05:01.164Z,1021.12
2017-05-28T08:06:12.187Z,1021.41
2017-05-28T08:07:23.223Z,1021.14
2017-05-28T08:08:34.254Z,1020.92
2017-05-28T08:09:45.278Z,1020.31
2017-05-28T08:10:56.322Z,1020.21
2017-05-28T08:12:07.403Z,1020.45
2017-05-28T08:13:18.642Z,1019.06
2017-05-28T08:14:29.894Z,1020.24
2017-05-28T08:15:40.975Z,1020.91
2017-05-28T08:16:52.002Z,1019.94
2017-05-28T08:18:03.231Z,1018.84
2017-05-28T08:19:14.267Z,1017.7
2017-05-28T08:20:25.299Z,1016.82
2017-05-28T08:21:36.378Z,1016.64
2017-05-28T08:22:47.406Z,1016.56
2017-05-28T08:23:58.445Z,1016.49
2017-05-28T08:25:09.483Z,1016.41
2017-05-28T08:26:20.534Z,1016.43
2017-05-28T08:27:31.809Z,1016.48
2017-05-28T08:28:42.876Z,1016.51
2017-05-28T08:29:53.921Z,1016.68
2017-05-28T08:31:04.970Z,1016.8
2017-05-28T08:32:16.006Z,1017.15
2017-05-28T08:33:27.087Z,1017.37
2017-05-28T08:34:38.321Z,1017.29
2017-05-28T08:35:49.351Z,1017.25
2017-05-28T08:37:00.378Z,1017.21
2017-05-28T08:38:11.406Z,1017.26
2017-05-28T08:39:22.505Z,1017.56
2017-05-28T08:40:33.543Z,1017.91
2017-05-28T08:41:44.774Z,1018.15
2017-05-28T08:42:55.814Z,1018.41
2017-05-28T08:44:06.850Z,1017.23
2017-05-28T08:45:18.132Z,1016.71
2017-05-28T08:46:29.370Z,1018.61
2017-05-28T08:47:40.475Z,1018.81
2017-05-28T08:48:51.501Z,1018.84
2017-05-28T08:50:02.546Z,1019.02
2017-05-28T08:51:13.619Z,1019.02
2017-05-28T08:52:25.259Z,1016.92
2017-05-28T08:53:36.299Z,1019.22
2017-05-28T08:54:47.335Z,1019.42
2017-05-28T08:55:58.379Z,1019.2
2017-05-28T08:57:09.466Z,1019.38
2017-05-28T08:58:20.497Z,1019.24
2017-05-28T08:59:31.748Z,1019.2
2017-05-28T09:00:43.190Z,1018.82
2017-05-28T09:01:54.217Z,1019.1
2017-05-28T09:03:05.694Z,1019.12
2017-05-28T09:04:16.714Z,1019.06
2017-05-28T09:05:27.748Z,1017.14
2017-05-28T09:06:38.787Z,1016.18
2017-05-28T09:07:49.818Z,1016.09
2017-05-28T09:09:01.293Z,1015.93
2017-05-28T09:10:12.317Z,1015.91
2017-05-28T09:11:23.546Z,1016.05
2017-05-28T09:12:34.600Z,1016.39
2017-05-28T09:13:45.632Z,1019.5
2017-05-28T09:14:56.714Z,1019.54
2017-05-28T09:16:07.946Z,1019.54
2017-05-28T09:17:18.972Z,1019.26
2017-05-28T09:18:30.001Z,1017.9
2017-05-28T09:19:41.042Z,1018.48
2017-05-28T09:20:52.069Z,1019.96
2017-05-28T09:22:03.101Z,1020.08
2017-05-28T09:23:14.119Z,1019.99
2017-05-28T09:24:25.352Z,1018.48
2017-05-28T09:25:36.439Z,1018.79
2017-05-28T09:26:47.470Z,1019.79
2017-05-28T09:27:58.505Z,1019.95
2017-05-28T09:29:09.534Z,1019.95
2017-05-28T09:30:20.567Z,1019.87
2017-05-28T09:31:31.648Z,1019.94
2017-05-28T09:32:42.893Z,1019.12
2017-05-28T09:33:53.934Z,1019.11
2017-05-28T09:35:04.962Z,1019.25
2017-05-28T09:36:15.988Z,1019.66
2017-05-28T09:37:27.070Z,1019.59
2017-05-28T09:38:38.094Z,1019.57
2017-05-28T09:39:49.327Z,1019.79
2017-05-28T09:41:00.373Z,1015.99
2017-05-28T09:42:11.389Z,1015.91
2017-05-28T09:43:22.475Z,1016.3
2017-05-28T09:44:33.506Z,1016.3
2017-05-28T09:45:44.545Z,1016.62
2017-05-28T09:46:55.583Z,1017.2
2017-05-28T09:48:06.611Z,1018.43
2017-05-28T09:49:17.690Z,1017.97
2017-05-28T09:50:28.913Z,1019.11
2017-05-28T09:51:39.959Z,1017.85
2017-05-28T09:52:50.994Z,1018.27
2017-05-28T09:54:02.031Z,1016.15
2017-05-28T09:55:13.102Z,1016.03
2017-05-28T09:56:24.332Z,1016.17
2017-05-28T09:57:35.564Z,1016.12
2017-05-28T09:58:46.797Z,1016.02
2017-05-28T09:59:57.830Z,1016.05
2017-05-28T10:01:09.105Z,1016.2
2017-05-28T10:02:20.142Z,1016.12
2017-05-28T10:03:31.176Z,1016.03
2017-05-28T10:04:42.399Z,1016.04
2017-05-28T10:05:53.625Z,1016.01
2017-05-28T10:07:04.701Z,1016.03
2017-05-28T10:08:15.718Z,1016.08
2017-05-28T10:09:27.147Z,1016.06
2017-05-28T10:10:38.167Z,1016.11
2017-05-28T10:11:49.190Z,1016.16
2017-05-28T10:13:00.258Z,1016.25
2017-05-28T10:14:11.354Z,1016.28
2017-05-28T10:15:22.389Z,1016.15
2017-05-28T10:16:33.407Z,1016.04
2017-05-28T10:17:44.427Z,1015.94
2017-05-28T10:18:55.718Z,1015.91
2017-05-28T10:20:06.950Z,1015.95
2017-05-28T10:21:17.967Z,1018.21
2017-05-28T10:22:28.989Z,1016.45
2017-05-28T10:23:40.007Z,1016.01
2017-05-28T10:24:51.076Z,1016
2017-05-28T10:26:02.086Z,1016.14
2017-05-28T10:27:13.121Z,1016.46
2017-05-28T10:28:24.143Z,1016.34
2017-05-28T10:29:35.169Z,1016.58
2017-05-28T10:30:46.199Z,1017.11
2017-05-28T10:31:57.218Z,1016.87
2017-05-28T10:33:08.246Z,1018.31
2017-05-28T10:34:19.264Z,1017.04
2017-05-28T10:35:30.356Z,1016.32
2017-05-28T10:36:41.389Z,1016.1
2017-05-28T10:37:52.417Z,1016.32
2017-05-28T10:39:03.642Z,1016.43
2017-05-28T10:40:14.663Z,1015.98
2017-05-28T10:41:25.744Z,1015.94
2017-05-28T10:42:36.785Z,1016.01
2017-05-28T10:43:47.817Z,1015.9
2017-05-28T10:44:58.840Z,1015.76
2017-05-28T10:46:10.064Z,1015.62
2017-05-28T10:47:21.296Z,1015.5
2017-05-28T10:48:32.521Z,1015.45
2017-05-28T10:49:43.548Z,1015.39
2017-05-28T10:50:54.573Z,1015.27
2017-05-28T10:52:05.593Z,1015.27
2017-05-28T10:53:16.669Z,1015.17
2017-05-28T10:54:27.693Z,1015.14
2017-05-28T10:55:38.730Z,1015.08
2017-05-28T10:56:49.813Z,1015.07
2017-05-28T10:58:00.878Z,1015.11
2017-05-28T10:59:11.913Z,1015.14
2017-05-28T11:00:22.935Z,1015.43
2017-05-28T11:01:34.160Z,1016.17
2017-05-28T11:02:45.188Z,1015.55
2017-05-28T11:03:56.223Z,1015.43
2017-05-28T11:05:07.247Z,1015.59
2017-05-28T11:06:18.282Z,1015.37
2017-05-28T11:07:29.311Z,1015.31
2017-05-28T11:08:40.376Z,1015.31
2017-05-28T11:09:51.610Z,1015.26
2017-05-28T11:11:02.851Z,1015.21
2017-05-28T11:12:13.880Z,1015.22
2017-05-28T11:13:25.111Z,1015.18
2017-05-28T11:14:36.143Z,1015.21
2017-05-28T11:15:47.187Z,1015.21
2017-05-28T11:16:58.209Z,1015.22
2017-05-28T11:18:09.235Z,1015.21
2017-05-28T11:19:20.320Z,1015.24
2017-05-28T11:20:31.359Z,1015.26
2017-05-28T11:21:42.382Z,1015.22
2017-05-28T11:22:53.613Z,1015.18
2017-05-28T11:24:04.642Z,1015.12
2017-05-28T11:25:15.926Z,1015.04
2017-05-28T11:26:27.148Z,1015.01
2017-05-28T11:27:38.167Z,1015.01
2017-05-28T11:28:49.186Z,1015.09
2017-05-28T11:30:00.215Z,1015.1
2017-05-28T11:31:11.296Z,1015.1
2017-05-28T11:32:22.322Z,1015.19
2017-05-28T11:33:33.543Z,1015.36
2017-05-28T11:34:44.575Z,1015.46
2017-05-28T11:35:55.813Z,1015.41
2017-05-28T11:37:07.085Z,1015.36
2017-05-28T11:38:18.109Z,1015.38
2017-05-28T11:39:29.149Z,1015.13
2017-05-28T11:40:40.187Z,1015.29
2017-05-28T11:41:51.223Z,1015.29
2017-05-28T11:43:02.303Z,1015.28
2017-05-28T11:44:13.340Z,1015.25
2017-05-28T11:45:24.371Z,1015.17
2017-05-28T11:46:35.403Z,1015.23
2017-05-28T11:47:46.833Z,1015.23
2017-05-28T11:48:57.911Z,1015.34
2017-05-28T11:50:08.940Z,1015.41
2017-05-28T11:51:19.971Z,1015.34
2017-05-28T11:52:31.011Z,1015.46
2017-05-28T11:53:42.051Z,1015.21
2017-05-28T11:54:53.132Z,1015.13
2017-05-28T11:56:04.210Z,1015.03
2017-05-28T11:57:15.237Z,1015.02
2017-05-28T11:58:26.253Z,1015.03
2017-05-28T11:59:37.280Z,1015.01
2017-05-28T12:00:48.309Z,1015.03
2017-05-28T12:01:59.339Z,1014.99
2017-05-28T12:03:10.367Z,1015
2017-05-28T12:04:21.603Z,1014.94
2017-05-28T12:05:32.878Z,1014.89
2017-05-28T12:06:43.914Z,1014.85
2017-05-28T12:07:54.937Z,1014.91
2017-05-28T12:09:05.976Z,1014.9
2017-05-28T12:10:17.016Z,1014.87
2017-05-28T12:11:28.296Z,1014.86
2017-05-28T12:12:39.334Z,1014.82
2017-05-28T12:13:50.560Z,1014.86
2017-05-28T12:15:01.802Z,1014.83
2017-05-28T12:16:12.829Z,1014.85
2017-05-28T12:17:23.913Z,1014.83
2017-05-28T12:18:34.950Z,1014.8
2017-05-28T12:19:45.979Z,1014.79
2017-05-28T12:20:57.206Z,1014.69
2017-05-28T12:22:08.449Z,1014.67
2017-05-28T12:23:19.531Z,1014.67
2017-05-28T12:24:30.774Z,1014.69
2017-05-28T12:25:41.805Z,1014.67
2017-05-28T12:26:52.838Z,1014.65
2017-05-28T12:28:03.862Z,1014.62
2017-05-28T12:29:14.946Z,1014.65
2017-05-28T12:30:25.985Z,1014.72
2017-05-28T12:31:37.024Z,1014.74
2017-05-28T12:32:48.085Z,1014.7
2017-05-28T12:33:59.127Z,1014.76
2017-05-28T12:35:10.155Z,1014.69
2017-05-28T12:36:21.177Z,1014.63
2017-05-28T12:37:32.201Z,1014.64
2017-05-28T12:38:43.229Z,1014.66
2017-05-28T12:39:54.258Z,1014.68
2017-05-28T12:41:05.332Z,1014.64
2017-05-28T12:42:16.362Z,1014.61
2017-05-28T12:43:27.392Z,1014.57
2017-05-28T12:44:38.443Z,1014.53
2017-05-28T12:45:49.484Z,1014.51
2017-05-28T12:47:00.548Z,1014.48
2017-05-28T12:48:11.572Z,1014.46
2017-05-28T12:49:22.602Z,1014.45
2017-05-28T12:50:33.653Z,1014.45
2017-05-28T12:51:44.691Z,1014.36
2017-05-28T12:52:55.778Z,1014.36
2017-05-28T12:54:06.811Z,1014.3
2017-05-28T12:55:17.839Z,1014.32
2017-05-28T12:56:28.867Z,1014.32
2017-05-28T12:57:39.888Z,1014.31
2017-05-28T12:58:50.974Z,1014.28
2017-05-28T13:00:02.025Z,1014.28
2017-05-28T13:01:13.051Z,1014.22
2017-05-28T13:02:24.090Z,1014.22
2017-05-28T13:03:35.113Z,1014.21
2017-05-28T13:04:46.188Z,1014.22
2017-05-28T13:05:57.422Z,1014.2
2017-05-28T13:07:08.440Z,1014.21
2017-05-28T13:08:19.471Z,1014.22
2017-05-28T13:09:30.700Z,1014.25
2017-05-28T13:10:41.926Z,1014.24
2017-05-28T13:11:53.152Z,1014.23
2017-05-28T13:13:04.185Z,1014.18
2017-05-28T13:14:15.419Z,1014.18
2017-05-28T13:15:26.697Z,1014.16
2017-05-28T13:16:37.921Z,1014.17
2017-05-28T13:17:49.148Z,1014.17
2017-05-28T13:19:00.183Z,1014.13
2017-05-28T13:20:11.213Z,1014.14
2017-05-28T13:21:22.277Z,1014.11
2017-05-28T13:22:33.311Z,1014.1
2017-05-28T13:23:44.335Z,1014.09
2017-05-28T13:24:55.374Z,1014.11
2017-05-28T13:26:06.610Z,1014.1
2017-05-28T13:27:17.893Z,1014.08
2017-05-28T13:28:28.911Z,1014.05
2017-05-28T13:29:39.947Z,1014.01
2017-05-28T13:30:50.976Z,1014.04
2017-05-28T13:32:02.013Z,1014.03
2017-05-28T13:33:13.301Z,1014
2017-05-28T13:34:24.739Z,1014.01
2017-05-28T13:35:35.759Z,1013.99
2017-05-28T13:36:46.989Z,1013.95
2017-05-28T13:37:58.024Z,1014
2017-05-28T13:39:09.129Z,1014
2017-05-28T13:40:20.361Z,1014
2017-05-28T13:41:31.382Z,1013.97
2017-05-28T13:42:42.412Z,1013.91
2017-05-28T13:43:53.431Z,1013.89
2017-05-28T13:45:04.516Z,1013.91
2017-05-28T13:46:15.536Z,1013.91
2017-05-28T13:47:26.564Z,1013.89
2017-05-28T13:48:37.601Z,1013.87
2017-05-28T13:49:48.620Z,1013.91
2017-05-28T13:50:59.640Z,1013.9
2017-05-28T13:52:10.668Z,1013.89
2017-05-28T13:53:21.892Z,1013.88
2017-05-28T13:54:33.121Z,1013.88
2017-05-28T13:55:44.151Z,1013.87
2017-05-28T13:56:55.421Z,1013.87
2017-05-28T13:58:06.449Z,1013.89
2017-05-28T13:59:17.479Z,1013.88
2017-05-28T14:00:28.505Z,1013.88
2017-05-28T14:01:39.523Z,1013.82
2017-05-28T14:02:50.615Z,1013.84
2017-05-28T14:04:01.644Z,1013.84
2017-05-28T14:05:12.686Z,1013.84
2017-05-28T14:06:23.918Z,1013.84
2017-05-28T14:07:35.137Z,1013.82
2017-05-28T14:08:46.221Z,1013.8
2017-05-28T14:09:57.471Z,1013.77
2017-05-28T14:11:08.489Z,1013.75
2017-05-28T14:12:19.923Z,1013.79
2017-05-28T14:13:31.159Z,1013.73
2017-05-28T14:14:42.648Z,1013.72
2017-05-28T14:15:53.678Z,1013.72
2017-05-28T14:17:04.922Z,1013.76
2017-05-28T14:18:16.135Z,1013.76
2017-05-28T14:19:27.165Z,1013.74
2017-05-28T14:20:38.194Z,1013.71
2017-05-28T14:21:49.219Z,1013.71
2017-05-28T14:23:00.249Z,1013.73
2017-05-28T14:24:11.485Z,1013.65